createdAt,value
2019-03-09T00:02:14.212Z,23.70
2019-03-09T00:04:45.662Z,17.98
2019-03-09T00:07:16.390Z,23.75
2019-03-09T00:09:47.963Z,22.10
2019-03-09T00:12:18.858Z,22.17
2019-03-09T00:14:49.258Z,20.72
2019-03-09T00:17:19.564Z,18.52
2019-03-09T00:19:50.125Z,16.10
2019-03-09T00:22:21.885Z,25.27
2019-03-09T00:24:55.233Z,20.68
2019-03-09T00:27:30.355Z,18.40
2019-03-09T00:30:20.532Z,17.95
2019-03-09T00:32:51.267Z,16.97
2019-03-09T00:35:21.502Z,18.73
2019-03-09T00:37:51.789Z,20.48
2019-03-09T00:40:22.552Z,21.87
2019-03-09T00:42:53.251Z,25.40
2019-03-09T00:45:23.888Z,19.77
2019-03-09T00:47:54.573Z,23.42
2019-03-09T00:50:29.845Z,18.40
2019-03-09T00:53:00.317Z,21.35
2019-03-09T00:55:30.492Z,21.40
2019-03-09T00:58:01.224Z,21.15
2019-03-09T01:00:31.569Z,18.27
2019-03-09T01:03:02.172Z,26.55
2019-03-09T01:05:32.454Z,18.48
2019-03-09T01:08:02.659Z,16.48
2019-03-09T01:10:33.421Z,20.15
2019-03-09T01:13:03.946Z,19.35
2019-03-09T01:15:34.524Z,19.05
2019-03-09T01:18:05.369Z,18.20
2019-03-09T01:20:35.939Z,20.80
2019-03-09T01:23:06.685Z,21.05
2019-03-09T01:25:37.899Z,20.17
2019-03-09T01:28:08.560Z,26.70
2019-03-09T01:30:40.545Z,18.85
2019-03-09T01:33:11.375Z,21.42
2019-03-09T01:35:42.081Z,20.48
2019-03-09T01:38:12.481Z,17.45
2019-03-09T01:40:42.697Z,24.95
2019-03-09T01:43:13.057Z,18.42
2019-03-09T01:45:43.241Z,20.30
2019-03-09T01:48:13.533Z,19.95
2019-03-09T01:50:44.120Z,19.55
2019-03-09T01:53:14.495Z,21.62
2019-03-09T01:55:45.217Z,17.10
2019-03-09T01:58:16.377Z,25.15
2019-03-09T02:00:47.102Z,16.55
2019-03-09T02:03:17.447Z,19.27
2019-03-09T02:05:48.330Z,19.05
2019-03-09T02:08:18.886Z,22.82
2019-03-09T02:10:49.909Z,20.40
2019-03-09T02:13:20.228Z,19.55
2019-03-09T02:15:51.091Z,25.72
2019-03-09T02:18:21.777Z,24.45
2019-03-09T02:20:52.537Z,27.85
2019-03-09T02:23:23.173Z,26.05
2019-03-09T02:25:53.811Z,18.17
2019-03-09T02:28:24.463Z,22.98
2019-03-09T02:30:54.981Z,25.15
2019-03-09T02:33:25.598Z,19.92
2019-03-09T02:35:55.888Z,23.30
2019-03-09T02:38:43.358Z,26.05
2019-03-09T02:41:13.991Z,22.80
2019-03-09T02:43:44.644Z,22.05
2019-03-09T02:46:16.265Z,22.50
2019-03-09T02:48:48.801Z,25.35
2019-03-09T02:51:19.061Z,24.23
2019-03-09T02:53:49.296Z,24.18
2019-03-09T02:56:19.611Z,17.23
2019-03-09T02:58:50.119Z,20.15
2019-03-09T03:01:20.464Z,26.57
2019-03-09T03:03:51.390Z,21.20
2019-03-09T03:06:22.122Z,24.75
2019-03-09T03:08:53.016Z,20.40
2019-03-09T03:11:23.460Z,20.92
2019-03-09T03:13:53.693Z,25.35
2019-03-09T03:16:24.056Z,23.77
2019-03-09T03:18:54.814Z,22.37
2019-03-09T03:21:25.115Z,20.60
2019-03-09T03:23:55.678Z,24.80
2019-03-09T03:26:31.056Z,29.30
2019-03-09T03:29:01.768Z,27.35
2019-03-09T03:31:32.077Z,26.40
2019-03-09T03:34:02.680Z,23.02
2019-03-09T03:36:35.106Z,24.47
2019-03-09T03:39:07.791Z,23.00
2019-03-09T03:41:39.061Z,19.50
2019-03-09T03:44:12.543Z,27.48
2019-03-09T03:46:42.988Z,22.77
2019-03-09T03:49:15.286Z,26.02
2019-03-09T03:51:45.919Z,23.83
2019-03-09T03:54:16.606Z,21.93
2019-03-09T03:56:47.932Z,26.37
2019-03-09T03:59:18.677Z,21.62
2019-03-09T04:01:49.158Z,25.02
2019-03-09T04:04:19.966Z,24.87
2019-03-09T04:06:52.002Z,22.05
2019-03-09T04:09:22.635Z,22.55
2019-03-09T04:11:53.551Z,26.40
2019-03-09T04:14:24.558Z,23.07
2019-03-09T04:16:55.067Z,21.55
2019-03-09T04:19:25.323Z,20.20
2019-03-09T04:21:55.677Z,26.70
2019-03-09T04:24:26.296Z,20.75
2019-03-09T04:26:57.016Z,23.40
2019-03-09T04:29:27.359Z,23.00
2019-03-09T04:31:57.672Z,24.67
2019-03-09T04:34:28.440Z,21.20
2019-03-09T04:37:02.489Z,22.93
2019-03-09T04:39:33.377Z,25.20
2019-03-09T04:42:03.847Z,26.42
2019-03-09T04:44:34.117Z,26.85
2019-03-09T04:47:04.844Z,22.22
2019-03-09T04:49:38.883Z,26.48
2019-03-09T04:54:39.991Z,26.52
2019-03-09T04:57:10.660Z,24.72
2019-03-09T04:59:41.106Z,26.77
2019-03-09T05:02:11.392Z,23.38
2019-03-09T05:04:44.270Z,20.55
2019-03-09T05:07:19.984Z,25.15
2019-03-09T05:10:13.809Z,20.35
2019-03-09T05:12:46.765Z,24.12
2019-03-09T05:15:17.323Z,23.95
2019-03-09T05:17:48.053Z,20.55
2019-03-09T05:20:18.478Z,22.58
2019-03-09T05:22:50.697Z,24.80
2019-03-09T05:25:21.408Z,21.70
2019-03-09T05:27:52.072Z,26.93
2019-03-09T05:30:47.912Z,28.73
2019-03-09T05:33:18.281Z,25.88
2019-03-09T05:35:49.061Z,24.27
2019-03-09T05:38:19.991Z,25.02
2019-03-09T05:40:50.328Z,23.30
2019-03-09T05:43:20.918Z,24.18
2019-03-09T05:45:51.704Z,21.17
2019-03-09T05:48:21.999Z,26.62
2019-03-09T05:50:52.256Z,25.57
2019-03-09T05:53:22.558Z,23.65
2019-03-09T05:55:52.788Z,23.85
2019-03-09T05:58:23.058Z,21.27
2019-03-09T06:00:53.278Z,23.18
2019-03-09T06:03:23.498Z,22.93
2019-03-09T06:05:54.796Z,24.52
2019-03-09T06:08:25.497Z,21.77
2019-03-09T06:10:56.214Z,21.85
2019-03-09T06:13:26.511Z,23.25
2019-03-09T06:15:56.778Z,21.40
2019-03-09T06:18:27.355Z,24.20
2019-03-09T06:20:58.007Z,27.60
2019-03-09T06:23:28.638Z,25.80
2019-03-09T06:25:58.957Z,27.00
2019-03-09T06:28:30.717Z,21.25
2019-03-09T06:31:02.500Z,23.25
2019-03-09T06:33:32.738Z,22.50
2019-03-09T06:36:12.453Z,28.40
2019-03-09T06:38:45.724Z,23.83
2019-03-09T06:41:28.083Z,28.92
2019-03-09T06:43:58.736Z,23.65
2019-03-09T06:46:29.342Z,22.98
2019-03-09T06:48:59.537Z,28.45
2019-03-09T06:51:29.791Z,23.62
2019-03-09T06:54:00.380Z,24.27
2019-03-09T06:56:30.680Z,19.60
2019-03-09T06:59:00.935Z,22.62
2019-03-09T07:01:32.461Z,23.60
2019-03-09T07:04:02.718Z,22.30
2019-03-09T07:06:33.328Z,22.42
2019-03-09T07:09:05.432Z,21.00
2019-03-09T07:11:37.349Z,19.60
2019-03-09T07:14:43.881Z,21.27
2019-03-09T07:17:14.437Z,21.25
2019-03-09T07:19:44.719Z,21.65
2019-03-09T07:22:15.391Z,21.20
2019-03-09T07:24:45.661Z,22.25
2019-03-09T07:27:16.447Z,24.10
2019-03-09T07:29:46.689Z,21.60
2019-03-09T07:32:16.927Z,21.48
2019-03-09T07:34:47.501Z,23.50
2019-03-09T07:37:17.840Z,22.42
2019-03-09T07:39:48.397Z,20.97
2019-03-09T07:42:19.030Z,21.57
2019-03-09T07:44:49.319Z,20.57
2019-03-09T07:47:19.562Z,19.82
2019-03-09T07:49:50.862Z,19.35
2019-03-09T07:52:35.399Z,18.92
2019-03-09T07:55:10.631Z,20.05
2019-03-09T07:57:40.964Z,22.20
2019-03-09T08:00:22.293Z,21.12
2019-03-09T08:02:52.911Z,17.85
2019-03-09T08:05:23.195Z,20.95
2019-03-09T08:07:53.779Z,17.12
2019-03-09T08:10:31.532Z,20.90
2019-03-09T08:13:01.951Z,18.87
2019-03-09T08:15:32.178Z,20.55
2019-03-09T08:18:02.712Z,19.45
2019-03-09T08:20:32.908Z,18.35
2019-03-09T08:23:03.582Z,20.70
2019-03-09T08:25:34.246Z,21.85
2019-03-09T08:28:04.926Z,20.70
2019-03-09T08:30:35.617Z,17.82
2019-03-09T08:33:06.416Z,18.62
2019-03-09T08:35:36.709Z,19.57
2019-03-09T08:38:06.977Z,15.75
2019-03-09T08:40:37.245Z,17.55
2019-03-09T08:43:07.528Z,15.38
2019-03-09T08:45:37.912Z,18.55
2019-03-09T08:48:08.507Z,18.90
2019-03-09T08:50:39.776Z,15.25
2019-03-09T08:53:10.416Z,15.85
2019-03-09T08:55:40.725Z,19.82
2019-03-09T08:58:11.299Z,17.52
2019-03-09T09:00:41.632Z,15.95
2019-03-09T09:03:11.824Z,18.52
2019-03-09T09:05:42.397Z,16.95
2019-03-09T09:08:12.691Z,15.78
2019-03-09T09:10:42.947Z,13.13
2019-03-09T09:13:13.637Z,16.02
2019-03-09T09:15:44.309Z,16.23
2019-03-09T09:18:14.991Z,13.75
2019-03-09T09:20:46.826Z,15.53
2019-03-09T09:23:17.197Z,13.03
2019-03-09T09:25:47.860Z,12.85
2019-03-09T09:28:18.434Z,11.53
2019-03-09T09:30:48.700Z,11.18
2019-03-09T09:33:19.245Z,13.53
2019-03-09T09:35:50.504Z,13.50
2019-03-09T09:38:20.806Z,13.95
2019-03-09T09:40:51.452Z,9.48
2019-03-09T09:43:22.154Z,10.32
2019-03-09T09:45:52.620Z,11.95
2019-03-09T09:48:22.960Z,12.80
2019-03-09T09:50:53.279Z,12.98
2019-03-09T09:53:27.036Z,12.60
2019-03-09T09:55:57.716Z,10.70
2019-03-09T09:58:28.006Z,10.88
2019-03-09T10:00:58.575Z,10.20
2019-03-09T10:03:29.094Z,10.38
2019-03-09T10:05:59.670Z,10.32
2019-03-09T10:08:29.947Z,10.95
2019-03-09T10:11:00.515Z,12.03
2019-03-09T10:13:32.573Z,9.30
2019-03-09T10:16:02.810Z,10.18
2019-03-09T10:18:33.418Z,13.45
2019-03-09T10:21:04.046Z,14.25
2019-03-09T10:23:34.340Z,10.20
2019-03-09T10:26:04.900Z,10.10
2019-03-09T10:28:35.311Z,12.25
2019-03-09T10:31:05.551Z,9.58
2019-03-09T10:33:35.763Z,9.35
2019-03-09T10:36:06.611Z,7.97
2019-03-09T10:38:37.287Z,11.12
2019-03-09T10:41:08.893Z,10.85
2019-03-09T10:43:39.524Z,13.13
2019-03-09T10:46:10.189Z,12.58
2019-03-09T10:48:42.980Z,12.55
2019-03-09T10:51:13.676Z,11.60
2019-03-09T10:53:44.035Z,11.57
2019-03-09T10:56:14.624Z,10.18
2019-03-09T10:58:45.249Z,9.85
2019-03-09T11:01:15.877Z,16.10
2019-03-09T11:03:46.417Z,9.20
2019-03-09T11:06:16.639Z,7.45
2019-03-09T11:08:47.218Z,10.32
2019-03-09T11:11:18.047Z,10.18
2019-03-09T11:13:51.830Z,7.65
2019-03-09T11:16:20.596Z,9.25
2019-03-09T11:18:50.887Z,10.65
2019-03-09T11:21:22.195Z,10.20
2019-03-09T11:23:54.062Z,8.98
2019-03-09T11:26:24.584Z,8.55
2019-03-09T11:28:55.184Z,10.15
2019-03-09T11:31:25.729Z,10.32
2019-03-09T11:33:55.946Z,7.00
2019-03-09T11:36:26.228Z,8.23
2019-03-09T11:38:56.791Z,8.75
2019-03-09T11:41:27.454Z,11.53
2019-03-09T11:43:57.856Z,8.75
2019-03-09T11:46:28.414Z,9.60
2019-03-09T11:48:58.703Z,7.60
2019-03-09T11:51:29.280Z,12.85
2019-03-09T11:53:59.587Z,9.33
2019-03-09T11:56:30.225Z,9.13
2019-03-09T11:59:00.879Z,8.28
2019-03-09T12:01:32.679Z,9.08
2019-03-09T12:04:04.330Z,10.23
2019-03-09T12:06:34.895Z,8.30
2019-03-09T12:09:06.446Z,6.03
2019-03-09T12:11:38.715Z,6.35
2019-03-09T12:14:09.069Z,9.43
2019-03-09T12:16:39.647Z,8.70
2019-03-09T12:19:10.786Z,10.10
2019-03-09T12:21:41.490Z,10.38
2019-03-09T12:24:16.734Z,6.47
2019-03-09T12:26:44.589Z,7.60
2019-03-09T12:29:14.899Z,8.18
2019-03-09T12:31:47.710Z,8.05
2019-03-09T12:34:18.404Z,9.50
2019-03-09T12:36:51.017Z,5.75
2019-03-09T12:39:21.322Z,7.33
2019-03-09T12:41:52.608Z,10.15
2019-03-09T12:44:23.647Z,5.47
2019-03-09T12:46:53.955Z,5.90
2019-03-09T12:49:24.690Z,4.70
2019-03-09T12:51:54.985Z,8.53
2019-03-09T12:54:25.276Z,8.63
2019-03-09T12:56:55.491Z,11.12
2019-03-09T12:59:26.198Z,9.85
2019-03-09T13:01:56.478Z,7.37
2019-03-09T13:04:27.045Z,7.12
2019-03-09T13:06:57.331Z,7.55
2019-03-09T13:09:27.879Z,8.58
2019-03-09T13:12:00.280Z,10.10
2019-03-09T13:14:30.681Z,11.10
2019-03-09T13:17:01.257Z,9.03
2019-03-09T13:19:31.909Z,9.63
2019-03-09T13:22:02.540Z,10.65
2019-03-09T13:24:33.022Z,10.55
2019-03-09T13:27:03.605Z,13.22
2019-03-09T13:29:34.229Z,8.93
2019-03-09T13:32:04.914Z,10.48
2019-03-09T13:34:35.226Z,6.90
2019-03-09T13:37:05.439Z,10.63
2019-03-09T13:39:35.737Z,6.67
2019-03-09T13:42:06.021Z,5.50
2019-03-09T13:44:36.711Z,5.17
2019-03-09T13:47:07.338Z,3.83
2019-03-09T13:49:38.009Z,5.62
2019-03-09T13:52:08.688Z,8.00
2019-03-09T13:54:39.334Z,9.25
2019-03-09T13:57:10.230Z,6.35
2019-03-09T13:59:40.868Z,7.03
2019-03-09T14:02:11.507Z,7.30
2019-03-09T14:04:41.863Z,4.35
2019-03-09T14:07:12.413Z,4.75
2019-03-09T14:09:43.265Z,6.95
2019-03-09T14:12:13.555Z,9.18
2019-03-09T14:14:44.331Z,8.50
2019-03-09T14:17:14.617Z,18.23
2019-03-09T14:19:45.185Z,6.78
2019-03-09T14:22:15.855Z,7.87
2019-03-09T14:24:46.152Z,12.07
2019-03-09T14:27:16.399Z,10.53
2019-03-09T14:29:46.625Z,7.83
2019-03-09T14:32:17.271Z,12.53
2019-03-09T14:34:47.922Z,6.55
2019-03-09T14:37:18.564Z,8.15
2019-03-09T14:39:51.814Z,7.28
2019-03-09T14:42:20.800Z,8.60
2019-03-09T14:44:51.368Z,10.20
2019-03-09T14:47:22.009Z,8.58
2019-03-09T14:49:52.694Z,10.38
2019-03-09T14:52:23.356Z,9.80
2019-03-09T14:54:54.015Z,11.90
2019-03-09T14:57:24.640Z,7.60
2019-03-09T14:59:54.937Z,4.55
2019-03-09T15:02:26.411Z,5.37
2019-03-09T15:04:57.145Z,4.35
2019-03-09T15:07:27.770Z,4.75
2019-03-09T15:09:58.421Z,4.58
2019-03-09T15:12:28.790Z,2.77
2019-03-09T15:14:59.370Z,3.65
2019-03-09T15:17:29.992Z,5.78
2019-03-09T15:20:00.324Z,6.33
2019-03-09T15:22:30.467Z,7.45
2019-03-09T15:25:01.035Z,6.75
2019-03-09T15:27:31.726Z,7.62
2019-03-09T15:30:02.347Z,6.92
2019-03-09T15:32:34.450Z,6.17
2019-03-09T15:35:07.907Z,8.40
2019-03-09T15:37:38.444Z,9.28
2019-03-09T15:40:17.470Z,5.47
2019-03-09T15:42:48.834Z,8.48
2019-03-09T15:45:21.884Z,6.50
2019-03-09T15:47:52.107Z,7.30
2019-03-09T15:50:24.099Z,6.37
2019-03-09T15:52:54.395Z,10.20
2019-03-09T15:55:24.604Z,7.95
2019-03-09T15:57:55.184Z,8.58
2019-03-09T16:00:26.307Z,8.40
2019-03-09T16:02:56.909Z,11.68
2019-03-09T16:05:27.493Z,15.20
2019-03-09T16:07:58.115Z,7.95
2019-03-09T16:10:28.837Z,6.10
2019-03-09T16:12:59.111Z,7.03
2019-03-09T16:15:29.718Z,8.35
2019-03-09T16:18:00.350Z,5.47
2019-03-09T16:20:31.449Z,6.92
2019-03-09T16:23:01.735Z,4.37
2019-03-09T16:25:31.940Z,8.55
2019-03-09T16:28:02.576Z,6.97
2019-03-09T16:30:33.271Z,12.33
2019-03-09T16:33:03.567Z,8.10
2019-03-09T16:35:34.948Z,8.83
2019-03-09T16:38:05.780Z,9.20
2019-03-09T16:40:40.717Z,8.70
2019-03-09T16:43:08.956Z,6.92
2019-03-09T16:45:39.178Z,7.58
2019-03-09T16:48:09.802Z,8.98
2019-03-09T16:50:40.085Z,10.80
2019-03-09T16:53:10.328Z,15.13
2019-03-09T16:55:40.907Z,10.65
2019-03-09T16:58:12.333Z,11.50
2019-03-09T17:00:42.923Z,12.60
2019-03-09T17:03:13.294Z,14.40
2019-03-09T17:05:44.000Z,10.98
2019-03-09T17:08:14.317Z,8.65
2019-03-09T17:10:44.731Z,12.75
2019-03-09T17:13:15.163Z,12.10
2019-03-09T17:15:45.688Z,12.25
2019-03-09T17:18:15.887Z,7.28
2019-03-09T17:20:46.480Z,12.60
2019-03-09T17:23:16.791Z,9.78
2019-03-09T17:25:47.102Z,10.68
2019-03-09T17:28:17.306Z,10.03
2019-03-09T17:30:47.525Z,17.80
2019-03-09T17:33:17.827Z,16.17
2019-03-09T17:35:48.053Z,15.45
2019-03-09T17:38:18.318Z,12.43
2019-03-09T17:40:48.538Z,18.98
2019-03-09T17:43:19.182Z,16.80
2019-03-09T17:45:49.803Z,14.98
2019-03-09T17:48:20.232Z,15.93
2019-03-09T17:50:50.875Z,16.85
2019-03-09T17:53:21.259Z,21.20
2019-03-09T17:55:51.502Z,17.02
2019-03-09T17:58:22.052Z,19.10
2019-03-09T18:00:52.681Z,24.32
2019-03-09T18:03:23.854Z,19.05
2019-03-09T18:05:54.114Z,18.50
2019-03-09T18:08:24.374Z,18.77
2019-03-09T18:11:10.598Z,22.07
2019-03-09T18:13:42.253Z,20.88
2019-03-09T18:16:12.534Z,22.20
2019-03-09T18:18:43.137Z,19.35
2019-03-09T18:21:13.442Z,23.12
2019-03-09T18:23:43.667Z,21.10
2019-03-09T18:26:13.901Z,23.67
2019-03-09T18:28:44.105Z,23.62
2019-03-09T18:31:14.805Z,22.35
2019-03-09T18:33:45.746Z,22.35
2019-03-09T18:36:16.048Z,23.77
2019-03-09T18:38:46.619Z,26.30
2019-03-09T18:41:17.247Z,24.37
2019-03-09T18:43:47.632Z,23.45
2019-03-09T18:46:17.901Z,19.52
2019-03-09T18:48:48.071Z,21.45
2019-03-09T18:51:18.635Z,20.05
2019-03-09T18:53:49.028Z,20.48
2019-03-09T18:56:19.319Z,19.92
2019-03-09T18:58:49.552Z,21.73
2019-03-09T19:01:19.761Z,23.55
2019-03-09T19:03:50.042Z,24.47
2019-03-09T19:06:20.243Z,24.63
2019-03-09T19:08:50.892Z,27.35
2019-03-09T19:11:21.232Z,33.35
2019-03-09T19:13:51.743Z,28.23
2019-03-09T19:16:22.041Z,28.50
2019-03-09T19:18:52.242Z,28.87
2019-03-09T19:21:22.590Z,29.67
2019-03-09T19:23:52.839Z,31.12
2019-03-09T19:26:23.096Z,29.37
2019-03-09T19:28:53.310Z,29.02
2019-03-09T19:31:23.542Z,29.57
2019-03-09T19:33:53.772Z,25.30
2019-03-09T19:36:24.183Z,32.15
2019-03-09T19:38:54.478Z,33.53
2019-03-09T19:41:25.078Z,32.58
2019-03-09T19:43:55.511Z,35.50
2019-03-09T19:46:26.296Z,30.37
2019-03-09T19:48:56.927Z,33.75
2019-03-09T19:51:28.231Z,38.63
2019-03-09T19:53:58.449Z,35.58
2019-03-09T19:56:28.713Z,35.45
2019-03-09T19:58:59.305Z,49.18
2019-03-09T20:01:30.126Z,36.68
2019-03-09T20:04:00.748Z,37.83
2019-03-09T20:06:31.015Z,40.55
2019-03-09T20:09:01.608Z,39.88
2019-03-09T20:11:33.908Z,43.20
2019-03-09T20:14:04.298Z,40.88
2019-03-09T20:16:34.900Z,41.63
2019-03-09T20:19:05.342Z,45.23
2019-03-09T20:21:36.872Z,44.03
2019-03-09T20:24:08.774Z,44.73
2019-03-09T20:26:39.012Z,45.38
2019-03-09T20:29:10.537Z,48.15
2019-03-09T20:31:41.187Z,46.53
2019-03-09T20:34:13.711Z,52.98
2019-03-09T20:36:44.011Z,49.10
2019-03-09T20:39:14.217Z,50.58
2019-03-09T20:41:45.003Z,51.50
2019-03-09T20:44:15.283Z,50.63
2019-03-09T20:46:45.521Z,52.40
2019-03-09T20:49:16.131Z,50.38
2019-03-09T20:51:46.751Z,53.68
2019-03-09T20:54:17.488Z,51.70
2019-03-09T20:56:48.081Z,51.50
2019-03-09T20:59:18.779Z,51.13
2019-03-09T21:01:49.441Z,50.70
2019-03-09T21:04:19.714Z,48.40
2019-03-09T21:06:50.267Z,47.33
2019-03-09T21:09:20.874Z,45.75
2019-03-09T21:11:51.156Z,47.05
2019-03-09T21:14:21.663Z,50.33
2019-03-09T21:16:52.221Z,46.50
2019-03-09T21:19:22.672Z,45.15
2019-03-09T21:21:52.924Z,38.35
2019-03-09T21:24:23.521Z,34.33
2019-03-09T21:26:54.175Z,33.38
2019-03-09T21:29:24.456Z,28.38
2019-03-09T21:31:55.052Z,26.77
2019-03-09T21:34:25.775Z,22.85
2019-03-09T21:36:56.416Z,21.60
2019-03-09T21:39:26.763Z,21.90
2019-03-09T21:41:56.937Z,19.20
2019-03-09T21:44:27.174Z,19.32
2019-03-09T21:46:57.935Z,17.65
2019-03-09T21:49:28.614Z,16.57
2019-03-09T21:51:59.316Z,22.15
2019-03-09T21:54:29.984Z,17.50
2019-03-09T21:57:00.285Z,17.00
2019-03-09T21:59:30.530Z,20.20
2019-03-09T22:02:01.092Z,20.00
2019-03-09T22:04:31.441Z,12.53
2019-03-09T22:07:01.648Z,14.65
2019-03-09T22:09:32.299Z,14.83
2019-03-09T22:12:02.584Z,16.60
2019-03-09T22:14:32.826Z,16.37
2019-03-09T22:17:03.392Z,13.62
2019-03-09T22:19:33.675Z,13.20
2019-03-09T22:22:04.354Z,13.13
2019-03-09T22:24:34.991Z,11.03
2019-03-09T22:27:05.623Z,10.53
2019-03-09T22:29:35.944Z,13.25
2019-03-09T22:32:06.507Z,12.80
2019-03-09T22:34:37.212Z,13.78
2019-03-09T22:37:07.515Z,12.88
2019-03-09T22:39:37.750Z,15.03
2019-03-09T22:42:08.427Z,13.48
2019-03-09T22:44:39.171Z,14.85
2019-03-09T22:47:11.823Z,15.10
2019-03-09T22:49:41.741Z,15.55
2019-03-09T22:52:12.036Z,15.93
2019-03-09T22:54:42.602Z,12.60
2019-03-09T22:57:12.879Z,12.47
2019-03-09T22:59:43.182Z,14.05
2019-03-09T23:02:14.473Z,15.68
2019-03-09T23:04:44.755Z,13.15
2019-03-09T23:07:16.301Z,10.45
2019-03-09T23:09:46.578Z,11.08
2019-03-09T23:12:16.871Z,12.78
2019-03-09T23:14:47.427Z,12.28
2019-03-09T23:17:17.753Z,12.15
2019-03-09T23:19:48.307Z,13.78
2019-03-09T23:22:18.953Z,14.93
2019-03-09T23:24:49.770Z,13.72
2019-03-09T23:27:20.062Z,13.05
2019-03-09T23:29:50.772Z,14.33
2019-03-09T23:32:21.402Z,16.17
2019-03-09T23:34:52.042Z,13.35
2019-03-09T23:37:22.319Z,14.43
2019-03-09T23:39:52.617Z,13.48
2019-03-09T23:42:22.905Z,13.98
2019-03-09T23:44:53.692Z,13.88
2019-03-09T23:47:24.285Z,15.32
2019-03-09T23:49:54.986Z,15.45
2019-03-09T23:52:25.613Z,15.60
2019-03-09T23:54:56.291Z,14.70
2019-03-09T23:57:26.567Z,15.45
2019-03-09T23:59:57.160Z,14.00
